Time;durP1;ratioP1;P1;durP2;ratioP2;P2;SDS_P1;SDS_P2;PMS_P1;PMS_P2;Temp;Humidity;BMP_temperature;BMP_pressure;BME280_temperature;BME280_humidity;BME280_pressure;Samples;Min_cycle;Max_cycle;Signal;HPM_P1;HPM_P2
2022/12/17 13:06:41;;;;;;;42.70;29.17;;;1.40;99.90;;;;;;6185842;23;20249;-82
2022/12/17 13:09:21;;;;;;;49.83;31.27;;;1.40;99.90;;;;;;6185574;23;20163;-82
2022/12/17 13:11:53;;;;;;;45.87;31.67;;;1.40;99.90;;;;;;6185786;23;20190;-82
2022/12/17 13:14:23;;;;;;;41.87;29.67;;;1.30;99.90;;;;;;6185891;23;20199;-81
2022/12/17 13:16:54;;;;;;;43.23;30.67;;;1.30;99.90;;;;;;6185901;23;20226;-82
2022/12/17 13:19:35;;;;;;;43.13;29.77;;;1.30;99.90;;;;;;6184747;23;20177;-82
2022/12/17 13:22:32;;;;;;;44.80;29.80;;;1.40;99.90;;;;;;6185205;23;20155;-82
2022/12/17 13:25:15;;;;;;;46.57;30.80;;;1.40;99.90;;;;;;6185829;23;20170;-83
2022/12/17 13:27:42;;;;;;;44.83;30.50;;;1.40;99.90;;;;;;6185618;23;20167;-82
2022/12/17 13:30:29;;;;;;;44.80;31.30;;;1.40;99.90;;;;;;6185768;23;20171;-80
2022/12/17 13:33:12;;;;;;;46.47;31.03;;;1.40;99.90;;;;;;6185400;23;20246;-86
2022/12/17 13:35:47;;;;;;;55.53;33.43;;;1.40;99.90;;;;;;6187325;23;20239;-84
2022/12/17 13:38:21;;;;;;;50.37;33.10;;;1.40;99.90;;;;;;6186169;23;20175;-81
2022/12/17 13:41:02;;;;;;;52.10;33.80;;;1.40;99.90;;;;;;6185217;23;20262;-84
2022/12/17 13:43:33;;;;;;;55.77;34.00;;;1.40;99.90;;;;;;6186043;23;20245;-82
2022/12/17 13:46:00;;;;;;;50.90;34.17;;;1.40;99.90;;;;;;6185723;23;20162;-81
2022/12/17 13:48:29;;;;;;;49.87;35.47;;;1.40;99.90;;;;;;6185104;23;20209;-82
2022/12/17 13:51:00;;;;;;;52.77;34.73;;;1.40;99.90;;;;;;6185817;23;20175;-81
2022/12/17 13:53:28;;;;;;;50.13;33.53;;;1.40;99.90;;;;;;6185573;23;20171;-80
2022/12/17 13:55:57;;;;;;;50.33;33.00;;;1.40;99.90;;;;;;6184738;23;20198;-82
2022/12/17 13:58:27;;;;;;;50.13;34.67;;;1.40;99.90;;;;;;6184531;23;20226;-82
2022/12/17 14:01:05;;;;;;;55.23;34.57;;;1.40;99.90;;;;;;6185153;23;20245;-82
2022/12/17 14:03:32;;;;;;;49.90;34.30;;;1.40;99.90;;;;;;6186043;23;20191;-81
2022/12/17 14:06:01;;;;;;;52.80;34.63;;;1.50;99.90;;;;;;6184858;23;20177;-80
2022/12/17 14:08:31;;;;;;;52.03;36.23;;;1.50;99.90;;;;;;6183801;23;20254;-81
2022/12/17 14:12:20;;;;;;;47.80;33.67;;;1.50;99.90;;;;;;6185159;23;20206;-80
2022/12/17 14:13:49;;;;;;;54.20;34.53;;;1.50;99.90;;;;;;6184304;23;20175;-82
2022/12/17 14:16:16;;;;;;;51.33;35.33;;;1.50;99.90;;;;;;6185205;23;20194;-85
2022/12/17 14:18:47;;;;;;;55.93;37.80;;;1.50;99.90;;;;;;6186701;23;20177;-85
2022/12/17 14:21:16;;;;;;;57.27;37.00;;;1.40;99.90;;;;;;6186904;23;20558;-85
2022/12/17 14:23:44;;;;;;;49.87;33.90;;;1.50;99.90;;;;;;6186499;23;20241;-85
2022/12/17 14:26:12;;;;;;;55.17;36.33;;;1.50;99.90;;;;;;6186888;23;20254;-86
2022/12/17 14:28:47;;;;;;;56.57;37.47;;;1.40;99.90;;;;;;6186044;23;20245;-85
2022/12/17 14:31:20;;;;;;;53.27;36.30;;;1.40;99.90;;;;;;6186175;23;20209;-85
2022/12/17 14:33:59;;;;;;;52.97;34.93;;;1.40;99.90;;;;;;6186896;23;20167;-86
2022/12/17 14:36:30;;;;;;;60.93;37.47;;;1.40;99.90;;;;;;6186427;23;20197;-85
2022/12/17 14:38:59;;;;;;;58.37;37.30;;;1.30;99.90;;;;;;6183628;23;20238;-86
2022/12/17 14:44:18;;;;;;;57.03;38.63;;;1.30;99.90;;;;;;6185823;23;20217;-85
2022/12/17 14:46:46;;;;;;;55.37;36.33;;;1.30;99.90;;;;;;6187078;23;20241;-85
2022/12/17 14:49:18;;;;;;;58.33;37.47;;;1.20;99.90;;;;;;6186122;23;20197;-86
2022/12/17 14:51:47;;;;;;;56.83;38.37;;;1.20;99.90;;;;;;6185379;23;20205;-86
2022/12/17 14:54:28;;;;;;;54.80;37.93;;;1.20;99.90;;;;;;6186377;23;20190;-85
2022/12/17 14:56:56;;;;;;;62.80;40.20;;;1.20;99.90;;;;;;6186159;23;20174;-86
2022/12/17 14:59:25;;;;;;;65.73;41.27;;;1.20;99.90;;;;;;6185358;23;20206;-85
2022/12/17 15:01:53;;;;;;;60.87;40.10;;;1.10;99.90;;;;;;6186488;23;20222;-86
2022/12/17 15:04:21;;;;;;;61.37;41.13;;;1.10;99.90;;;;;;6185307;23;20191;-87
2022/12/17 15:06:53;;;;;;;71.33;42.83;;;1.00;99.90;;;;;;6186434;23;20167;-90
2022/12/17 15:09:19;;;;;;;68.20;42.63;;;1.00;99.90;;;;;;6185500;23;20190;-86
2022/12/17 15:11:46;;;;;;;58.33;40.07;;;1.00;99.90;;;;;;6185432;23;20573;-86
2022/12/17 15:14:13;;;;;;;63.63;40.73;;;1.00;99.90;;;;;;6186052;23;20667;-86
2022/12/17 15:16:40;;;;;;;61.00;38.63;;;0.90;99.90;;;;;;6186641;23;20194;-86
2022/12/17 15:19:07;;;;;;;66.00;41.13;;;0.90;99.90;;;;;;6184594;23;20163;-85
2022/12/17 15:21:34;;;;;;;71.77;42.90;;;0.90;99.90;;;;;;6187069;23;20257;-86
2022/12/17 15:24:03;;;;;;;66.23;40.67;;;0.90;99.90;;;;;;6186958;23;20167;-83
2022/12/17 15:26:30;;;;;;;66.27;42.00;;;0.90;99.90;;;;;;6185427;23;20209;-85
2022/12/17 15:28:57;;;;;;;57.47;39.37;;;0.80;99.90;;;;;;6185369;23;20555;-82
2022/12/17 15:31:23;;;;;;;72.37;43.03;;;0.80;99.90;;;;;;6185146;23;20758;-82
2022/12/17 15:33:50;;;;;;;73.20;42.43;;;0.80;99.90;;;;;;6184440;23;20222;-85
2022/12/17 15:36:17;;;;;;;74.10;44.13;;;0.70;99.90;;;;;;6185226;23;20524;-84
2022/12/17 15:38:45;;;;;;;67.30;41.60;;;0.70;99.90;;;;;;6185704;23;20183;-83
2022/12/17 15:43:57;;;;;;;69.63;41.60;;;0.60;99.90;;;;;;6185662;23;20241;-88
2022/12/17 15:46:24;;;;;;;74.20;43.60;;;0.50;99.90;;;;;;6185203;23;20209;-86
2022/12/17 15:48:51;;;;;;;79.10;44.47;;;0.50;99.90;;;;;;6185874;23;20572;-87
2022/12/17 15:51:19;;;;;;;78.63;45.23;;;0.40;99.90;;;;;;6185338;23;20206;-88
2022/12/17 15:53:47;;;;;;;78.40;45.93;;;0.40;99.90;;;;;;6186037;23;20225;-88
2022/12/17 15:56:21;;;;;;;75.90;44.67;;;0.30;99.90;;;;;;6186499;23;20198;-88
2022/12/17 15:58:48;;;;;;;84.60;46.17;;;0.30;99.90;;;;;;6186749;23;20273;-87
2022/12/17 16:01:17;;;;;;;82.87;46.30;;;0.30;99.90;;;;;;6190164;23;20225;-88
2022/12/17 16:03:44;;;;;;;89.83;47.90;;;0.20;99.90;;;;;;6190915;23;20559;-80
2022/12/17 16:06:11;;;;;;;88.43;45.93;;;0.20;99.90;;;;;;6185977;23;20622;-81
2022/12/17 16:08:39;;;;;;;91.70;48.33;;;0.20;99.90;;;;;;6185744;23;20297;-84
2022/12/17 16:11:08;;;;;;;87.10;45.77;;;0.10;99.90;;;;;;6186232;23;20205;-81
2022/12/17 16:13:37;;;;;;;80.03;44.67;;;0.00;99.90;;;;;;6186302;23;20191;-81
2022/12/17 16:16:05;;;;;;;78.63;44.27;;;0.00;99.90;;;;;;6185615;23;20245;-81
2022/12/17 16:18:32;;;;;;;83.43;44.50;;;0.00;99.90;;;;;;6185678;23;20241;-81
2022/12/17 16:21:03;;;;;;;78.23;42.33;;;0.00;99.90;;;;;;6185525;23;20581;-80
2022/12/17 16:23:30;;;;;;;78.40;43.13;;;0.00;99.90;;;;;;6186031;23;20579;-81
2022/12/17 16:25:58;;;;;;;79.73;44.90;;;-0.10;99.90;;;;;;6185969;23;20169;-80
2022/12/17 16:28:25;;;;;;;81.30;43.10;;;-0.10;99.90;;;;;;6184848;23;20563;-84
2022/12/17 16:31:01;;;;;;;83.27;43.27;;;-0.10;99.90;;;;;;6184904;23;20177;-81
2022/12/17 16:33:31;;;;;;;79.27;42.97;;;-0.10;99.90;;;;;;6185563;23;20256;-80
2022/12/17 16:35:58;;;;;;;82.50;44.67;;;-0.20;99.90;;;;;;6183713;23;20191;-87
2022/12/17 16:38:26;;;;;;;84.20;45.77;;;-0.20;99.90;;;;;;6187306;23;20167;-85
2022/12/17 16:40:55;;;;;;;88.80;44.93;;;-0.20;99.90;;;;;;6187612;23;20169;-86
2022/12/17 16:43:22;;;;;;;83.83;41.63;;;-0.20;99.90;;;;;;6187089;23;20536;-82
2022/12/17 16:45:51;;;;;;;86.03;43.80;;;-0.30;99.90;;;;;;6186705;23;20167;-84
2022/12/17 16:48:20;;;;;;;75.83;42.23;;;-0.30;99.90;;;;;;6186272;23;20255;-88
2022/12/17 16:50:47;;;;;;;84.30;43.83;;;-0.30;99.90;;;;;;6185646;23;20195;-82
2022/12/17 16:53:14;;;;;;;93.77;45.03;;;-0.30;99.90;;;;;;6186538;23;20258;-81
2022/12/17 16:55:42;;;;;;;87.37;46.10;;;-0.30;99.90;;;;;;6186847;23;20237;-89
2022/12/17 16:58:09;;;;;;;89.40;43.90;;;-0.40;99.90;;;;;;6185213;23;20625;-86
2022/12/17 17:00:37;;;;;;;82.17;43.47;;;-0.40;99.90;;;;;;6186515;23;20209;-81
2022/12/17 17:03:04;;;;;;;85.07;43.83;;;-0.40;99.90;;;;;;6183413;23;20269;-86
2022/12/17 17:05:33;;;;;;;79.10;41.80;;;-0.40;99.90;;;;;;6184665;23;20189;-80
2022/12/17 17:08:01;;;;;;;92.87;44.83;;;-0.50;99.90;;;;;;6186108;23;20199;-86
2022/12/17 17:10:28;;;;;;;82.03;43.47;;;-0.50;99.90;;;;;;6183123;23;20225;-83
2022/12/17 17:12:56;;;;;;;88.33;45.67;;;-0.50;99.90;;;;;;6186766;23;20186;-82
2022/12/17 17:15:23;;;;;;;84.27;43.63;;;-0.50;99.90;;;;;;6185896;23;20273;-83
2022/12/17 17:17:51;;;;;;;89.03;45.30;;;-0.50;99.90;;;;;;6185895;23;20174;-85
2022/12/17 17:20:18;;;;;;;96.90;45.27;;;-0.50;99.90;;;;;;6186526;23;20178;-84
2022/12/17 17:22:46;;;;;;;101.97;44.80;;;-0.50;99.90;;;;;;6185893;23;20559;-82
2022/12/17 17:25:13;;;;;;;93.97;46.03;;;-0.50;99.90;;;;;;6185676;23;20250;-81
2022/12/17 17:27:40;;;;;;;101.10;46.93;;;-0.50;99.90;;;;;;6184598;23;20478;-83
2022/12/17 17:30:08;;;;;;;95.70;45.53;;;-0.50;99.90;;;;;;6185967;23;20259;-83
2022/12/17 17:32:35;;;;;;;94.70;47.53;;;-0.50;99.90;;;;;;6185929;23;20251;-82
2022/12/17 17:35:02;;;;;;;96.17;47.10;;;-0.50;99.90;;;;;;6185809;23;20181;-82
2022/12/17 17:37:29;;;;;;;93.70;47.03;;;-0.60;99.90;;;;;;6186334;23;20627;-82
2022/12/17 17:39:57;;;;;;;103.50;47.53;;;-0.60;99.90;;;;;;6185816;23;20257;-85
2022/12/17 17:42:24;;;;;;;94.20;45.93;;;-0.60;99.90;;;;;;6186335;23;20167;-83
2022/12/17 17:44:51;;;;;;;104.83;49.17;;;-0.60;99.90;;;;;;6186047;23;20195;-84
2022/12/17 17:47:18;;;;;;;99.90;46.67;;;-0.50;99.90;;;;;;6184188;23;20246;-87
2022/12/17 17:49:45;;;;;;;105.33;48.17;;;-0.60;99.90;;;;;;6186002;23;20528;-81
2022/12/17 17:52:12;;;;;;;98.93;47.13;;;-0.60;99.90;;;;;;6187292;23;20209;-85
2022/12/17 17:54:39;;;;;;;98.17;47.60;;;-0.60;99.90;;;;;;6186620;23;20259;-85
2022/12/17 17:57:08;;;;;;;103.43;47.27;;;-0.60;99.90;;;;;;6186056;23;20273;-84
2022/12/17 17:59:35;;;;;;;102.90;46.23;;;-0.60;99.90;;;;;;6185344;23;20202;-84
2022/12/17 18:02:03;;;;;;;105.43;46.27;;;-0.60;99.90;;;;;;6186320;23;20222;-85
2022/12/17 18:04:30;;;;;;;113.70;48.63;;;-0.60;99.90;;;;;;6185368;23;20175;-84
2022/12/17 18:06:57;;;;;;;103.83;47.87;;;-0.60;99.90;;;;;;6184504;23;20198;-84
2022/12/17 18:09:24;;;;;;;109.03;50.60;;;-0.60;99.90;;;;;;6185994;23;20182;-84
2022/12/17 18:11:51;;;;;;;114.87;51.93;;;-0.60;99.90;;;;;;6184775;23;20436;-83
2022/12/17 18:14:18;;;;;;;102.00;46.60;;;-0.70;99.90;;;;;;6180828;23;20173;-84
2022/12/17 18:16:47;;;;;;;120.00;53.17;;;-0.70;99.90;;;;;;6184294;23;20190;-83
2022/12/17 18:19:16;;;;;;;103.17;47.60;;;-0.70;99.90;;;;;;6184491;23;20190;-84
2022/12/17 18:21:43;;;;;;;116.93;49.37;;;-0.70;99.90;;;;;;6185796;23;20174;-83
2022/12/17 18:24:13;;;;;;;107.67;48.13;;;-0.70;99.90;;;;;;6186239;23;20171;-82
2022/12/17 18:26:41;;;;;;;102.03;47.70;;;-0.70;99.90;;;;;;6186504;23;20225;-81
2022/12/17 18:29:10;;;;;;;105.03;47.03;;;-0.70;99.90;;;;;;6184406;23;20171;-78
2022/12/17 18:31:39;;;;;;;116.57;47.93;;;-0.70;99.90;;;;;;6183834;23;20171;-79
2022/12/17 18:34:07;;;;;;;106.33;46.57;;;-0.80;99.90;;;;;;6184446;23;20262;-79
2022/12/17 18:36:36;;;;;;;115.93;46.97;;;-0.80;99.90;;;;;;6184101;23;20195;-81
2022/12/17 18:39:06;;;;;;;117.17;48.20;;;-0.80;99.90;;;;;;6184413;23;20235;-80
2022/12/17 18:44:18;;;;;;;98.37;44.30;;;-0.80;99.90;;;;;;6184379;23;20166;-80
2022/12/17 18:46:46;;;;;;;106.60;45.67;;;-0.80;99.90;;;;;;6184711;23;20169;-82
2022/12/17 18:49:15;;;;;;;103.77;44.20;;;-0.90;99.90;;;;;;6185040;23;20185;-81
2022/12/17 18:51:46;;;;;;;100.40;44.90;;;-0.90;99.90;;;;;;6183074;23;20241;-82
2022/12/17 18:54:15;;;;;;;103.70;45.03;;;-0.90;99.90;;;;;;6184494;23;20156;-81
2022/12/17 18:56:42;;;;;;;102.17;46.20;;;-0.90;99.90;;;;;;6183788;23;20265;-82
2022/12/17 18:59:13;;;;;;;106.50;45.17;;;-0.90;99.90;;;;;;6183530;23;20282;-80
2022/12/17 19:01:40;;;;;;;113.23;46.57;;;-0.90;99.90;;;;;;6184298;23;20274;-81
2022/12/17 19:04:11;;;;;;;94.07;42.43;;;-1.00;99.90;;;;;;6183675;23;20217;-77
2022/12/17 19:06:39;;;;;;;107.00;45.77;;;-1.00;99.90;;;;;;6184709;23;20249;-81
2022/12/17 19:09:07;;;;;;;93.63;41.70;;;-1.00;99.90;;;;;;6185292;23;20251;-80
2022/12/17 19:11:35;;;;;;;110.03;44.30;;;-1.00;99.90;;;;;;6183682;23;20206;-80
2022/12/17 19:14:03;;;;;;;107.23;45.23;;;-1.00;99.90;;;;;;6182025;23;20186;-81
2022/12/17 19:16:30;;;;;;;96.97;41.97;;;-1.10;99.90;;;;;;6182718;23;20201;-81
2022/12/17 19:18:58;;;;;;;99.10;43.10;;;-1.00;99.90;;;;;;6183127;23;20178;-79
2022/12/17 19:21:27;;;;;;;104.33;46.07;;;-1.00;99.90;;;;;;6184959;23;20233;-81
2022/12/17 19:23:58;;;;;;;113.10;46.43;;;-1.10;99.90;;;;;;6183827;23;20235;-82
2022/12/17 19:26:26;;;;;;;103.90;43.80;;;-1.10;99.90;;;;;;6183986;23;20167;-80
2022/12/17 19:28:55;;;;;;;105.10;43.20;;;-1.10;99.90;;;;;;6183084;23;20206;-83
2022/12/17 19:31:24;;;;;;;101.00;42.40;;;-1.10;99.90;;;;;;6185289;23;20174;-84
2022/12/17 19:33:57;;;;;;;110.13;44.03;;;-1.10;99.90;;;;;;6185698;23;20202;-80
2022/12/17 19:36:29;;;;;;;98.10;41.83;;;-1.10;99.90;;;;;;6186428;23;20233;-83
2022/12/17 19:38:57;;;;;;;107.73;43.60;;;-1.00;99.90;;;;;;6184367;23;20443;-75
2022/12/17 19:41:26;;;;;;;126.93;46.23;;;-1.10;99.90;;;;;;6185843;23;20928;-79
2022/12/17 19:43:55;;;;;;;108.00;43.37;;;-1.10;99.90;;;;;;6185711;23;20182;-83
2022/12/17 19:46:22;;;;;;;111.63;42.50;;;-1.10;99.90;;;;;;6185409;23;20170;-77
2022/12/17 19:48:50;;;;;;;106.43;43.67;;;-1.10;99.90;;;;;;6186044;23;20605;-84
2022/12/17 19:51:19;;;;;;;104.27;42.03;;;-1.20;99.90;;;;;;6186238;23;20170;-81
2022/12/17 19:53:49;;;;;;;118.53;42.67;;;-1.20;99.90;;;;;;6185202;23;20171;-79
2022/12/17 19:56:18;;;;;;;119.23;44.00;;;-1.20;99.90;;;;;;6183797;23;20278;-78
2022/12/17 19:58:46;;;;;;;112.33;41.53;;;-1.20;99.90;;;;;;6184838;23;20230;-78
2022/12/17 20:01:16;;;;;;;112.53;43.70;;;-1.20;99.90;;;;;;6185510;23;20206;-78
2022/12/17 20:03:44;;;;;;;106.60;43.17;;;-1.20;99.90;;;;;;6185253;23;20198;-77
2022/12/17 20:06:12;;;;;;;112.20;41.53;;;-1.20;99.90;;;;;;6184387;23;20559;-77
2022/12/17 20:08:39;;;;;;;93.33;39.57;;;-1.20;99.90;;;;;;6185087;23;20249;-81
2022/12/17 20:13:53;;;;;;;107.53;40.90;;;-1.20;99.90;;;;;;6184439;23;20178;-81
2022/12/17 20:16:20;;;;;;;108.60;42.97;;;-1.20;99.90;;;;;;6185713;23;20460;-83
2022/12/17 20:18:47;;;;;;;107.03;42.20;;;-1.20;99.90;;;;;;6185013;23;20198;-76
2022/12/17 20:21:13;;;;;;;103.27;42.47;;;-1.20;99.90;;;;;;6184946;23;20209;-77
2022/12/17 20:23:40;;;;;;;118.60;45.50;;;-1.20;99.90;;;;;;6185610;23;20171;-80
2022/12/17 20:26:11;;;;;;;105.10;41.43;;;-1.30;99.90;;;;;;6185488;23;20171;-80
2022/12/17 20:28:38;;;;;;;111.93;42.50;;;-1.20;99.90;;;;;;6184159;23;20221;-80
2022/12/17 20:31:05;;;;;;;102.77;40.50;;;-1.20;99.90;;;;;;6185656;23;20560;-79
2022/12/17 20:33:32;;;;;;;106.27;42.33;;;-1.20;99.90;;;;;;6185520;23;20221;-77
2022/12/17 20:36:04;;;;;;;103.10;41.80;;;-1.20;99.90;;;;;;6184649;23;20258;-78
2022/12/17 20:38:30;;;;;;;100.00;39.27;;;-1.20;99.90;;;;;;6185515;23;20246;-80
2022/12/17 20:40:57;;;;;;;100.57;40.27;;;-1.20;99.90;;;;;;6184429;23;20619;-79
2022/12/17 20:43:26;;;;;;;91.93;40.17;;;-1.30;99.90;;;;;;6184713;23;20206;-82
2022/12/17 20:45:54;;;;;;;87.73;39.63;;;-1.30;99.90;;;;;;6185488;23;20254;-81
2022/12/17 20:48:21;;;;;;;94.43;39.90;;;-1.30;99.90;;;;;;6184403;23;20173;-81
2022/12/17 20:50:48;;;;;;;97.73;39.43;;;-1.30;99.90;;;;;;6185321;23;20175;-81
2022/12/17 20:53:15;;;;;;;95.10;38.90;;;-1.30;99.90;;;;;;6185443;23;20186;-81
2022/12/17 20:55:42;;;;;;;109.17;42.67;;;-1.30;99.90;;;;;;6183957;23;20174;-77
2022/12/17 20:58:09;;;;;;;112.30;43.90;;;-1.30;99.90;;;;;;6184702;23;20238;-79
2022/12/17 21:00:37;;;;;;;109.03;41.20;;;-1.30;99.90;;;;;;6184563;23;20225;-81
2022/12/17 21:03:05;;;;;;;93.83;40.40;;;-1.30;99.90;;;;;;6183505;23;20222;-80
2022/12/17 21:05:34;;;;;;;108.00;40.00;;;-1.30;99.90;;;;;;6184935;23;20423;-77
2022/12/17 21:08:01;;;;;;;106.67;43.13;;;-1.40;99.90;;;;;;6184095;23;20589;-80
2022/12/17 21:10:28;;;;;;;112.43;42.37;;;-1.40;99.90;;;;;;6184016;23;20481;-75
2022/12/17 21:15:40;;;;;;;115.93;41.60;;;-1.40;99.90;;;;;;6184270;23;20169;-76
2022/12/17 21:18:07;;;;;;;119.17;44.23;;;-1.40;99.90;;;;;;6184232;23;20198;-80
2022/12/17 21:20:34;;;;;;;122.03;41.87;;;-1.40;99.90;;;;;;6183738;23;20175;-76
2022/12/17 21:23:01;;;;;;;106.03;43.27;;;-1.40;99.90;;;;;;6184176;23;20220;-76
2022/12/17 21:25:28;;;;;;;115.13;42.03;;;-1.40;99.90;;;;;;6183719;23;20206;-78
2022/12/17 21:27:54;;;;;;;104.43;40.37;;;-1.50;99.90;;;;;;6179790;23;20189;-76
2022/12/17 21:30:21;;;;;;;110.23;42.57;;;-1.50;99.90;;;;;;6184657;23;20179;-79
2022/12/17 21:32:50;;;;;;;112.83;40.47;;;-1.50;99.90;;;;;;6177510;23;20166;-75
2022/12/17 21:35:16;;;;;;;119.83;44.13;;;-1.50;99.90;;;;;;6184387;23;20225;-75
2022/12/17 21:37:43;;;;;;;117.10;42.90;;;-1.50;99.90;;;;;;6182830;23;20587;-75
2022/12/17 21:40:11;;;;;;;123.57;43.70;;;-1.50;99.90;;;;;;6183031;23;20190;-75
2022/12/17 21:45:23;;;;;;;128.33;43.43;;;-1.50;99.90;;;;;;6184026;23;20469;-74
2022/12/17 21:47:51;;;;;;;118.33;43.73;;;-1.50;99.90;;;;;;6184300;23;20229;-74
2022/12/17 21:50:18;;;;;;;115.47;42.23;;;-1.50;99.90;;;;;;6184334;23;20634;-75
2022/12/17 21:52:45;;;;;;;115.40;41.27;;;-1.50;99.90;;;;;;6183153;23;20246;-75
2022/12/17 21:55:12;;;;;;;122.60;44.37;;;-1.50;99.90;;;;;;6181023;23;20205;-74
2022/12/17 21:57:39;;;;;;;110.97;41.00;;;-1.50;99.90;;;;;;6182964;23;20230;-76
2022/12/17 22:00:07;;;;;;;116.20;43.03;;;-1.60;99.90;;;;;;6183498;23;20318;-72
2022/12/17 22:02:34;;;;;;;116.73;43.77;;;-1.60;99.90;;;;;;6183891;23;20478;-72
2022/12/17 22:05:02;;;;;;;116.03;42.23;;;-1.60;99.90;;;;;;6183826;23;20179;-73
2022/12/17 22:07:29;;;;;;;113.33;42.60;;;-1.60;99.90;;;;;;6183520;23;20250;-73
2022/12/17 22:09:56;;;;;;;121.77;42.77;;;-1.60;99.90;;;;;;6183820;23;20239;-75
2022/12/17 22:15:09;;;;;;;135.60;46.00;;;-1.60;99.90;;;;;;6183914;23;20166;-76
2022/12/17 22:17:36;;;;;;;118.43;42.27;;;-1.60;99.90;;;;;;6183341;23;20205;-75
2022/12/17 22:20:05;;;;;;;134.13;44.37;;;-1.60;99.90;;;;;;6183468;23;20177;-74
2022/12/17 22:22:32;;;;;;;124.33;42.77;;;-1.60;99.90;;;;;;6184414;23;20213;-76
2022/12/17 22:24:59;;;;;;;115.93;42.23;;;-1.60;99.90;;;;;;6183326;23;20266;-75
2022/12/17 22:27:26;;;;;;;114.90;42.17;;;-1.60;99.90;;;;;;6183249;23;20496;-77
2022/12/17 22:35:23;;;;;;;107.03;41.97;;;-1.70;99.90;;;;;;6183971;23;20165;-77
2022/12/17 22:37:50;;;;;;;121.33;42.73;;;-1.70;99.90;;;;;;6184679;23;20654;-79
2022/12/17 22:40:17;;;;;;;114.27;41.83;;;-1.70;99.90;;;;;;6184325;23;20213;-83
2022/12/17 22:45:28;;;;;;;109.03;41.00;;;-1.70;99.90;;;;;;6185304;23;20250;-82
2022/12/17 22:47:55;;;;;;;106.23;38.97;;;-1.70;99.90;;;;;;6183990;23;20198;-84
2022/12/17 22:50:24;;;;;;;110.73;41.93;;;-1.70;99.90;;;;;;6184138;23;20169;-82
2022/12/17 22:52:51;;;;;;;113.40;41.63;;;-1.80;99.90;;;;;;6183823;23;20249;-76
2022/12/17 22:55:18;;;;;;;112.83;40.50;;;-1.90;99.90;;;;;;6183287;23;20175;-76
2022/12/17 22:57:45;;;;;;;114.23;42.20;;;-1.90;99.90;;;;;;6184105;23;20198;-76
2022/12/17 23:00:16;;;;;;;116.93;40.67;;;-1.90;99.90;;;;;;6183562;23;20240;-75
2022/12/17 23:02:43;;;;;;;105.47;41.50;;;-1.90;99.90;;;;;;6182223;23;20194;-75
2022/12/17 23:05:10;;;;;;;114.07;43.47;;;-1.90;99.90;;;;;;6183657;23;20221;-75
2022/12/17 23:07:38;;;;;;;111.17;41.33;;;-1.90;99.90;;;;;;6183724;23;20594;-75
2022/12/17 23:10:05;;;;;;;112.80;42.47;;;-1.90;99.90;;;;;;6182239;23;20177;-75
2022/12/17 23:13:00;;;;;;;102.07;41.27;;;-1.90;99.90;;;;;;6183714;23;20178;-75
2022/12/17 23:15:30;;;;;;;117.37;41.07;;;-1.90;99.90;;;;;;6184121;23;20190;-75
2022/12/17 23:17:59;;;;;;;135.83;46.37;;;-1.90;99.90;;;;;;6182535;23;20685;-75
2022/12/17 23:20:28;;;;;;;118.97;43.77;;;-1.90;99.90;;;;;;6183593;23;20190;-76
2022/12/17 23:22:57;;;;;;;123.27;40.77;;;-1.80;99.90;;;;;;6183478;23;20213;-75
2022/12/17 23:25:24;;;;;;;112.50;41.90;;;-1.80;99.90;;;;;;6182975;23;20202;-74
2022/12/17 23:27:51;;;;;;;116.00;44.37;;;-1.80;99.90;;;;;;6183829;23;20167;-73
2022/12/17 23:30:19;;;;;;;118.20;41.60;;;-1.80;99.90;;;;;;6183110;23;20434;-74
2022/12/17 23:32:46;;;;;;;109.50;42.70;;;-1.80;99.90;;;;;;6183356;23;20253;-74
2022/12/17 23:35:14;;;;;;;120.47;42.37;;;-1.80;99.90;;;;;;6183517;23;20167;-73
2022/12/17 23:37:41;;;;;;;116.57;41.80;;;-1.80;99.90;;;;;;6182624;23;20447;-73
2022/12/17 23:40:11;;;;;;;105.83;40.10;;;-1.90;99.90;;;;;;6183435;23;20178;-73
2022/12/17 23:42:38;;;;;;;119.77;43.30;;;-1.90;99.90;;;;;;6182160;23;20173;-73
2022/12/17 23:45:07;;;;;;;115.17;42.97;;;-1.90;99.90;;;;;;6182846;23;20171;-73
2022/12/17 23:47:34;;;;;;;117.33;43.07;;;-1.90;99.90;;;;;;6182311;23;20166;-73
2022/12/17 23:50:01;;;;;;;114.40;42.30;;;-1.90;99.90;;;;;;6183347;23;20253;-74
2022/12/17 23:52:28;;;;;;;112.20;42.77;;;-1.90;99.90;;;;;;6183467;23;20197;-72
2022/12/17 23:54:55;;;;;;;117.47;42.97;;;-1.90;99.90;;;;;;6184107;23;20249;-75
2022/12/17 23:57:23;;;;;;;109.53;41.33;;;-1.90;99.90;;;;;;6184025;23;20233;-75
2022/12/17 23:59:50;;;;;;;103.63;40.47;;;-1.90;99.90;;;;;;6182800;23;20202;-77
